sensor_id;sensor_type;location;lat;lon;timestamp;pressure;altitude;pressure_sealevel;temperature;humidity
72794;BME280;63436;26.334;50.194;2023-04-25T00:01:46;100587.50;;;28.59;33.21
72794;BME280;63436;26.334;50.194;2023-04-25T00:04:12;100573.26;;;28.41;33.26
72794;BME280;63436;26.334;50.194;2023-04-25T00:06:37;100598.72;;;28.26;33.21
72794;BME280;63436;26.334;50.194;2023-04-25T00:09:02;100584.46;;;28.30;33.06
72794;BME280;63436;26.334;50.194;2023-04-25T00:11:27;100615.03;;;28.94;32.77
72794;BME280;63436;26.334;50.194;2023-04-25T00:13:53;100611.84;;;27.69;34.40
72794;BME280;63436;26.334;50.194;2023-04-25T00:16:20;100639.63;;;28.21;33.79
72794;BME280;63436;26.334;50.194;2023-04-25T00:18:45;100642.03;;;28.37;35.62
72794;BME280;63436;26.334;50.194;2023-04-25T00:21:11;100638.56;;;27.31;37.37
72794;BME280;63436;26.334;50.194;2023-04-25T00:23:37;100639.78;;;27.68;36.05
72794;BME280;63436;26.334;50.194;2023-04-25T00:26:04;100626.65;;;28.67;34.58
72794;BME280;63436;26.334;50.194;2023-04-25T00:28:30;100653.37;;;28.34;34.43
72794;BME280;63436;26.334;50.194;2023-04-25T00:30:55;100639.72;;;27.70;34.31
72794;BME280;63436;26.334;50.194;2023-04-25T00:33:21;100653.09;;;28.44;33.53
72794;BME280;63436;26.334;50.194;2023-04-25T00:35:47;100645.35;;;27.50;34.21
72794;BME280;63436;26.334;50.194;2023-04-25T00:38:13;100630.85;;;28.12;33.79
72794;BME280;63436;26.334;50.194;2023-04-25T00:40:39;100637.73;;;26.57;35.82
72794;BME280;63436;26.334;50.194;2023-04-25T00:43:04;100634.44;;;27.45;35.10
72794;BME280;63436;26.334;50.194;2023-04-25T00:45:30;100647.91;;;27.35;35.59
72794;BME280;63436;26.334;50.194;2023-04-25T00:47:56;100623.18;;;28.20;34.29
72794;BME280;63436;26.334;50.194;2023-04-25T00:50:21;100646.57;;;27.77;35.28
72794;BME280;63436;26.334;50.194;2023-04-25T00:52:46;100623.09;;;27.88;35.15
72794;BME280;63436;26.334;50.194;2023-04-25T00:55:12;100644.33;;;28.19;34.35
72794;BME280;63436;26.334;50.194;2023-04-25T00:57:37;100619.94;;;27.88;35.00
72794;BME280;63436;26.334;50.194;2023-04-25T01:00:03;100638.13;;;28.90;33.95
72794;BME280;63436;26.334;50.194;2023-04-25T01:02:29;100643.86;;;28.45;34.34
72794;BME280;63436;26.334;50.194;2023-04-25T01:04:54;100623.83;;;28.68;33.74
72794;BME280;63436;26.334;50.194;2023-04-25T01:07:19;100641.52;;;28.70;34.01
72794;BME280;63436;26.334;50.194;2023-04-25T01:09:44;100639.67;;;28.85;33.58
72794;BME280;63436;26.334;50.194;2023-04-25T01:12:09;100623.45;;;29.09;33.15
72794;BME280;63436;26.334;50.194;2023-04-25T01:14:34;100639.10;;;28.91;33.55
72794;BME280;63436;26.334;50.194;2023-04-25T01:17:00;100620.99;;;27.67;34.87
72794;BME280;63436;26.334;50.194;2023-04-25T01:19:25;100639.38;;;28.98;33.22
72794;BME280;63436;26.334;50.194;2023-04-25T01:21:50;100621.30;;;29.01;32.45
72794;BME280;63436;26.334;50.194;2023-04-25T01:24:16;100642.55;;;29.35;32.46
72794;BME280;63436;26.334;50.194;2023-04-25T01:26:41;100623.70;;;28.83;32.59
72794;BME280;63436;26.334;50.194;2023-04-25T01:29:07;100636.34;;;29.09;31.58
72794;BME280;63436;26.334;50.194;2023-04-25T01:31:32;100617.52;;;28.85;31.16
72794;BME280;63436;26.334;50.194;2023-04-25T01:33:57;100618.75;;;29.01;30.78
72794;BME280;63436;26.334;50.194;2023-04-25T01:36:22;100637.43;;;29.01;30.70
72794;BME280;63436;26.334;50.194;2023-04-25T01:38:47;100620.00;;;28.45;31.07
72794;BME280;63436;26.334;50.194;2023-04-25T01:41:13;100640.18;;;28.33;30.21
72794;BME280;63436;26.334;50.194;2023-04-25T01:43:39;100639.95;;;28.91;29.01
72794;BME280;63436;26.334;50.194;2023-04-25T01:46:06;100621.95;;;28.91;29.10
72794;BME280;63436;26.334;50.194;2023-04-25T01:48:32;100616.05;;;28.90;28.19
72794;BME280;63436;26.334;50.194;2023-04-25T01:50:59;100618.44;;;28.95;28.32
72794;BME280;63436;26.334;50.194;2023-04-25T01:53:26;100617.48;;;29.13;27.59
72794;BME280;63436;26.334;50.194;2023-04-25T01:55:52;100622.77;;;28.84;28.06
72794;BME280;63436;26.334;50.194;2023-04-25T01:58:18;100634.30;;;28.48;27.94
72794;BME280;63436;26.334;50.194;2023-04-25T02:00:43;100614.47;;;28.98;27.43
72794;BME280;63436;26.334;50.194;2023-04-25T02:03:09;100633.21;;;29.46;26.93
72794;BME280;63436;26.334;50.194;2023-04-25T02:05:36;100614.98;;;29.32;26.89
72794;BME280;63436;26.334;50.194;2023-04-25T02:07:59;100632.21;;;28.76;27.20
72794;BME280;63436;26.334;50.194;2023-04-25T02:10:25;100613.98;;;28.94;26.97
72794;BME280;63436;26.334;50.194;2023-04-25T02:12:49;100631.05;;;29.05;26.86
72794;BME280;63436;26.334;50.194;2023-04-25T02:15:15;100614.98;;;29.53;26.28
72794;BME280;63436;26.334;50.194;2023-04-25T02:17:40;100634.93;;;28.89;27.30
72794;BME280;63436;26.334;50.194;2023-04-25T02:20:06;100619.90;;;29.25;26.67
72794;BME280;63436;26.334;50.194;2023-04-25T02:22:30;100641.27;;;29.26;26.85
72794;BME280;63436;26.334;50.194;2023-04-25T02:24:57;100630.00;;;29.08;27.03
72794;BME280;63436;26.334;50.194;2023-04-25T02:27:21;100659.68;;;28.84;27.78
72794;BME280;63436;26.334;50.194;2023-04-25T02:29:46;100645.06;;;29.21;27.34
72794;BME280;63436;26.334;50.194;2023-04-25T02:32:12;100675.43;;;28.87;27.78
72794;BME280;63436;26.334;50.194;2023-04-25T02:34:37;100669.53;;;28.74;27.72
72794;BME280;63436;26.334;50.194;2023-04-25T02:37:02;100690.29;;;29.34;26.95
72794;BME280;63436;26.334;50.194;2023-04-25T02:39:28;100677.54;;;28.91;26.91
72794;BME280;63436;26.334;50.194;2023-04-25T02:41:52;100693.70;;;29.36;26.35
72794;BME280;63436;26.334;50.194;2023-04-25T02:44:18;100675.34;;;28.95;26.67
72794;BME280;63436;26.334;50.194;2023-04-25T02:46:44;100676.75;;;29.29;27.16
72794;BME280;63436;26.334;50.194;2023-04-25T02:49:09;100697.64;;;29.95;27.20
72794;BME280;63436;26.334;50.194;2023-04-25T02:51:34;100675.34;;;29.67;26.88
72794;BME280;63436;26.334;50.194;2023-04-25T02:53:59;100694.72;;;29.37;27.30
72794;BME280;63436;26.334;50.194;2023-04-25T02:56:24;100671.83;;;29.92;27.08
72794;BME280;63436;26.334;50.194;2023-04-25T02:58:49;100689.84;;;30.04;27.47
72794;BME280;63436;26.334;50.194;2023-04-25T03:01:15;100668.24;;;30.18;27.20
72794;BME280;63436;26.334;50.194;2023-04-25T03:03:40;100693.78;;;29.80;28.03
72794;BME280;63436;26.334;50.194;2023-04-25T03:06:05;100678.66;;;29.23;28.54
72794;BME280;63436;26.334;50.194;2023-04-25T03:08:30;100724.58;;;30.17;28.02
72794;BME280;63436;26.334;50.194;2023-04-25T03:10:55;100690.73;;;29.69;28.36
72794;BME280;63436;26.334;50.194;2023-04-25T03:13:20;100715.88;;;29.76;28.54
72794;BME280;63436;26.334;50.194;2023-04-25T03:15:46;100698.22;;;29.75;28.54
72794;BME280;63436;26.334;50.194;2023-04-25T03:18:11;100723.66;;;29.90;28.10
72794;BME280;63436;26.334;50.194;2023-04-25T03:20:36;100708.76;;;29.94;27.63
72794;BME280;63436;26.334;50.194;2023-04-25T03:23:01;100737.57;;;30.51;27.16
72794;BME280;63436;26.334;50.194;2023-04-25T03:25:26;100732.44;;;30.04;28.20
72794;BME280;63436;26.334;50.194;2023-04-25T03:27:52;100703.71;;;29.53;28.64
72794;BME280;63436;26.334;50.194;2023-04-25T03:30:18;100730.12;;;29.65;28.62
72794;BME280;63436;26.334;50.194;2023-04-25T03:32:42;100717.53;;;29.48;28.49
72794;BME280;63436;26.334;50.194;2023-04-25T03:35:07;100749.00;;;29.47;27.61
72794;BME280;63436;26.334;50.194;2023-04-25T03:37:32;100746.29;;;30.01;27.68
72794;BME280;63436;26.334;50.194;2023-04-25T03:39:58;100786.33;;;29.99;26.76
72794;BME280;63436;26.334;50.194;2023-04-25T03:42:22;100756.26;;;29.98;27.43
72794;BME280;63436;26.334;50.194;2023-04-25T03:44:48;100790.76;;;30.40;27.50
72794;BME280;63436;26.334;50.194;2023-04-25T03:47:13;100765.36;;;30.63;27.62
72794;BME280;63436;26.334;50.194;2023-04-25T03:49:38;100783.52;;;29.82;28.98
72794;BME280;63436;26.334;50.194;2023-04-25T03:52:03;100769.00;;;29.62;29.75
72794;BME280;63436;26.334;50.194;2023-04-25T03:54:28;100780.78;;;29.22;31.27
72794;BME280;63436;26.334;50.194;2023-04-25T03:56:53;100809.46;;;29.25;32.33
72794;BME280;63436;26.334;50.194;2023-04-25T03:59:19;100795.31;;;28.84;34.21
72794;BME280;63436;26.334;50.194;2023-04-25T04:01:44;100818.17;;;28.58;34.80
72794;BME280;63436;26.334;50.194;2023-04-25T04:04:09;100805.73;;;28.99;35.09
72794;BME280;63436;26.334;50.194;2023-04-25T04:06:35;100826.54;;;28.80;35.12
72794;BME280;63436;26.334;50.194;2023-04-25T04:09:00;100826.25;;;30.45;33.36
72794;BME280;63436;26.334;50.194;2023-04-25T04:11:26;100803.32;;;28.71;35.49
72794;BME280;63436;26.334;50.194;2023-04-25T04:13:51;100829.19;;;28.98;36.00
72794;BME280;63436;26.334;50.194;2023-04-25T04:16:17;100810.32;;;29.16;35.94
72794;BME280;63436;26.334;50.194;2023-04-25T04:18:41;100835.81;;;28.46;37.06
72794;BME280;63436;26.334;50.194;2023-04-25T04:21:06;100818.31;;;29.06;35.95
72794;BME280;63436;26.334;50.194;2023-04-25T04:23:32;100848.93;;;28.04;37.99
72794;BME280;63436;26.334;50.194;2023-04-25T04:25:57;100828.17;;;28.40;37.20
72794;BME280;63436;26.334;50.194;2023-04-25T04:28:23;100860.76;;;28.22;38.23
72794;BME280;63436;26.334;50.194;2023-04-25T04:30:48;100844.82;;;27.55;38.37
72794;BME280;63436;26.334;50.194;2023-04-25T04:33:13;100865.82;;;28.26;37.02
72794;BME280;63436;26.334;50.194;2023-04-25T04:35:38;100844.17;;;27.61;37.40
72794;BME280;63436;26.334;50.194;2023-04-25T04:38:03;100870.94;;;27.22;38.05
72794;BME280;63436;26.334;50.194;2023-04-25T04:40:29;100858.25;;;29.31;35.78
72794;BME280;63436;26.334;50.194;2023-04-25T04:42:55;100878.78;;;28.92;36.16
72794;BME280;63436;26.334;50.194;2023-04-25T04:45:19;100863.15;;;27.84;36.89
72794;BME280;63436;26.334;50.194;2023-04-25T04:47:45;100869.64;;;27.40;37.76
72794;BME280;63436;26.334;50.194;2023-04-25T04:50:13;100883.91;;;28.55;37.04
72794;BME280;63436;26.334;50.194;2023-04-25T04:52:36;100874.70;;;28.26;37.34
72794;BME280;63436;26.334;50.194;2023-04-25T04:55:01;100891.41;;;28.18;37.04
72794;BME280;63436;26.334;50.194;2023-04-25T04:57:27;100873.21;;;28.35;36.85
72794;BME280;63436;26.334;50.194;2023-04-25T04:59:51;100909.23;;;28.54;36.83
72794;BME280;63436;26.334;50.194;2023-04-25T05:02:16;100891.45;;;27.71;37.00
72794;BME280;63436;26.334;50.194;2023-04-25T05:04:42;100909.14;;;27.20;37.93
72794;BME280;63436;26.334;50.194;2023-04-25T05:07:06;100892.97;;;28.39;36.09
72794;BME280;63436;26.334;50.194;2023-04-25T05:09:32;100909.80;;;29.29;34.31
72794;BME280;63436;26.334;50.194;2023-04-25T05:11:57;100909.46;;;28.44;36.02
72794;BME280;63436;26.334;50.194;2023-04-25T05:14:22;100910.61;;;29.07;34.71
72794;BME280;63436;26.334;50.194;2023-04-25T05:16:48;100903.23;;;27.76;35.36
72794;BME280;63436;26.334;50.194;2023-04-25T05:19:14;100922.73;;;28.28;35.54
72794;BME280;63436;26.334;50.194;2023-04-25T05:21:38;100913.23;;;27.48;35.57
72794;BME280;63436;26.334;50.194;2023-04-25T05:24:04;100922.62;;;26.61;36.88
72794;BME280;63436;26.334;50.194;2023-04-25T05:26:29;100909.38;;;28.53;34.47
72794;BME280;63436;26.334;50.194;2023-04-25T05:28:54;100939.87;;;28.09;35.03
72794;BME280;63436;26.334;50.194;2023-04-25T05:31:19;100928.41;;;27.56;35.61
72794;BME280;63436;26.334;50.194;2023-04-25T05:33:45;100948.81;;;27.57;36.67
72794;BME280;63436;26.334;50.194;2023-04-25T05:36:09;100939.68;;;27.60;36.58
72794;BME280;63436;26.334;50.194;2023-04-25T05:38:34;100951.58;;;28.05;36.20
72794;BME280;63436;26.334;50.194;2023-04-25T05:41:00;100942.61;;;27.07;37.48
72794;BME280;63436;26.334;50.194;2023-04-25T05:43:25;100965.74;;;28.36;36.68
72794;BME280;63436;26.334;50.194;2023-04-25T05:45:50;100953.42;;;26.98;38.16
72794;BME280;63436;26.334;50.194;2023-04-25T05:48:17;100950.25;;;27.81;37.38
72794;BME280;63436;26.334;50.194;2023-04-25T05:50:42;100939.79;;;27.54;38.19
72794;BME280;63436;26.334;50.194;2023-04-25T05:53:08;100946.87;;;26.50;39.98
72794;BME280;63436;26.334;50.194;2023-04-25T05:55:33;100949.65;;;26.60;40.15
72794;BME280;63436;26.334;50.194;2023-04-25T05:57:59;100957.99;;;26.71;39.94
72794;BME280;63436;26.334;50.194;2023-04-25T06:00:25;100961.60;;;27.22;39.10
72794;BME280;63436;26.334;50.194;2023-04-25T06:02:50;100969.90;;;27.59;40.01
72794;BME280;63436;26.334;50.194;2023-04-25T06:05:16;100985.82;;;25.89;41.83
72794;BME280;63436;26.334;50.194;2023-04-25T06:07:41;100992.00;;;28.09;39.69
72794;BME280;63436;26.334;50.194;2023-04-25T06:10:08;100988.15;;;26.05;41.41
72794;BME280;63436;26.334;50.194;2023-04-25T06:12:32;100985.68;;;27.17;40.12
72794;BME280;63436;26.334;50.194;2023-04-25T06:14:59;100985.43;;;26.26;40.76
72794;BME280;63436;26.334;50.194;2023-04-25T06:17:24;100980.60;;;26.67;40.26
72794;BME280;63436;26.334;50.194;2023-04-25T06:19:49;100983.22;;;25.19;42.10
72794;BME280;63436;26.334;50.194;2023-04-25T06:22:15;100972.74;;;26.39;40.76
72794;BME280;63436;26.334;50.194;2023-04-25T06:24:41;100968.42;;;26.59;40.42
72794;BME280;63436;26.334;50.194;2023-04-25T06:27:06;100979.20;;;25.77;42.09
72794;BME280;63436;26.334;50.194;2023-04-25T06:29:32;100989.29;;;26.60;40.66
72794;BME280;63436;26.334;50.194;2023-04-25T06:31:58;101000.35;;;25.71;42.34
72794;BME280;63436;26.334;50.194;2023-04-25T06:34:23;101017.00;;;26.78;41.69
72794;BME280;63436;26.334;50.194;2023-04-25T06:36:48;101024.99;;;27.85;39.58
72794;BME280;63436;26.334;50.194;2023-04-25T06:39:15;101027.99;;;26.19;41.89
72794;BME280;63436;26.334;50.194;2023-04-25T06:41:40;101037.17;;;27.32;41.03
72794;BME280;63436;26.334;50.194;2023-04-25T06:44:05;101024.42;;;26.23;43.29
72794;BME280;63436;26.334;50.194;2023-04-25T06:46:31;101016.88;;;26.12;42.57
72794;BME280;63436;26.334;50.194;2023-04-25T06:48:56;101020.59;;;26.03;42.66
72794;BME280;63436;26.334;50.194;2023-04-25T06:51:22;101020.60;;;26.27;42.38
72794;BME280;63436;26.334;50.194;2023-04-25T06:53:48;101001.71;;;25.02;45.03
72794;BME280;63436;26.334;50.194;2023-04-25T06:56:13;101001.15;;;25.24;45.78
72794;BME280;63436;26.334;50.194;2023-04-25T06:58:39;100995.36;;;26.10;44.05
72794;BME280;63436;26.334;50.194;2023-04-25T07:01:05;101003.43;;;25.70;44.04
72794;BME280;63436;26.334;50.194;2023-04-25T07:03:30;101011.08;;;25.83;44.07
72794;BME280;63436;26.334;50.194;2023-04-25T07:05:55;101025.32;;;25.03;44.62
72794;BME280;63436;26.334;50.194;2023-04-25T07:08:21;101029.34;;;25.67;43.99
72794;BME280;63436;26.334;50.194;2023-04-25T07:10:47;101034.54;;;25.88;43.56
72794;BME280;63436;26.334;50.194;2023-04-25T07:13:12;101049.69;;;25.91;43.34
72794;BME280;63436;26.334;50.194;2023-04-25T07:15:39;101034.04;;;25.64;43.02
72794;BME280;63436;26.334;50.194;2023-04-25T07:18:04;101051.72;;;26.27;42.30
72794;BME280;63436;26.334;50.194;2023-04-25T07:20:29;101046.19;;;24.48;44.01
72794;BME280;63436;26.334;50.194;2023-04-25T07:22:55;101056.66;;;25.91;42.86
72794;BME280;63436;26.334;50.194;2023-04-25T07:25:20;101056.38;;;25.09;44.71
72794;BME280;63436;26.334;50.194;2023-04-25T07:27:46;101050.61;;;25.47;43.63
72794;BME280;63436;26.334;50.194;2023-04-25T07:30:13;101043.41;;;25.78;44.49
72794;BME280;63436;26.334;50.194;2023-04-25T07:32:38;101032.22;;;25.80;45.11
72794;BME280;63436;26.334;50.194;2023-04-25T07:35:03;101026.52;;;25.24;45.90
72794;BME280;63436;26.334;50.194;2023-04-25T07:37:29;101024.66;;;25.19;45.50
72794;BME280;63436;26.334;50.194;2023-04-25T07:39:54;101022.45;;;26.68;43.42
72794;BME280;63436;26.334;50.194;2023-04-25T07:42:19;101007.60;;;25.79;44.65
72794;BME280;63436;26.334;50.194;2023-04-25T07:44:45;101008.85;;;24.95;45.87
72794;BME280;63436;26.334;50.194;2023-04-25T07:47:11;101004.52;;;25.68;44.19
72794;BME280;63436;26.334;50.194;2023-04-25T07:49:37;101005.59;;;24.84;45.22
72794;BME280;63436;26.334;50.194;2023-04-25T07:52:03;100995.70;;;25.10;45.46
72794;BME280;63436;26.334;50.194;2023-04-25T07:54:27;100984.09;;;25.67;44.60
72794;BME280;63436;26.334;50.194;2023-04-25T07:56:53;100959.44;;;25.74;44.75
72794;BME280;63436;26.334;50.194;2023-04-25T07:59:19;100958.69;;;25.59;45.55
72794;BME280;63436;26.334;50.194;2023-04-25T08:01:44;100953.54;;;25.02;46.40
72794;BME280;63436;26.334;50.194;2023-04-25T08:04:10;100961.51;;;26.21;44.53
72794;BME280;63436;26.334;50.194;2023-04-25T08:06:35;100977.37;;;26.96;43.13
72794;BME280;63436;26.334;50.194;2023-04-25T08:09:01;100964.73;;;25.64;44.64
72794;BME280;63436;26.334;50.194;2023-04-25T08:11:26;100970.27;;;25.93;44.45
72794;BME280;63436;26.334;50.194;2023-04-25T08:13:52;100969.41;;;25.45;45.00
72794;BME280;63436;26.334;50.194;2023-04-25T08:16:18;100955.82;;;26.22;43.90
72794;BME280;63436;26.334;50.194;2023-04-25T08:18:43;100951.95;;;26.11;44.04
72794;BME280;63436;26.334;50.194;2023-04-25T08:21:09;100941.93;;;26.60;42.50
72794;BME280;63436;26.334;50.194;2023-04-25T08:23:34;100950.88;;;25.66;44.29
72794;BME280;63436;26.334;50.194;2023-04-25T08:26:00;100946.66;;;28.10;41.36
72794;BME280;63436;26.334;50.194;2023-04-25T08:28:26;100941.41;;;26.56;42.59
72794;BME280;63436;26.334;50.194;2023-04-25T08:30:51;100933.86;;;27.11;41.79
72794;BME280;63436;26.334;50.194;2023-04-25T08:33:17;100943.04;;;28.29;40.19
72794;BME280;63436;26.334;50.194;2023-04-25T08:35:43;100936.62;;;27.30;41.93
72794;BME280;63436;26.334;50.194;2023-04-25T08:38:08;100927.52;;;26.47;43.05
72794;BME280;63436;26.334;50.194;2023-04-25T08:40:38;100919.86;;;26.57;42.81
72794;BME280;63436;26.334;50.194;2023-04-25T08:43:00;100922.89;;;27.39;41.42
72794;BME280;63436;26.334;50.194;2023-04-25T08:45:27;100911.22;;;25.43;44.12
72794;BME280;63436;26.334;50.194;2023-04-25T08:47:52;100909.08;;;26.59;42.52
72794;BME280;63436;26.334;50.194;2023-04-25T08:50:17;100914.11;;;26.19;43.20
72794;BME280;63436;26.334;50.194;2023-04-25T08:52:44;100921.65;;;27.02;42.06
72794;BME280;63436;26.334;50.194;2023-04-25T08:55:09;100909.69;;;27.31;41.58
72794;BME280;63436;26.334;50.194;2023-04-25T08:57:34;100900.82;;;26.98;42.23
72794;BME280;63436;26.334;50.194;2023-04-25T09:00:01;100899.17;;;26.03;43.89
72794;BME280;63436;26.334;50.194;2023-04-25T09:02:24;100887.68;;;26.88;42.45
72794;BME280;63436;26.334;50.194;2023-04-25T09:04:50;100867.13;;;26.69;42.55
72794;BME280;63436;26.334;50.194;2023-04-25T09:07:15;100869.74;;;26.62;43.23
72794;BME280;63436;26.334;50.194;2023-04-25T09:09:41;100861.70;;;26.28;43.57
72794;BME280;63436;26.334;50.194;2023-04-25T09:12:07;100875.57;;;26.26;43.83
72794;BME280;63436;26.334;50.194;2023-04-25T09:14:32;100871.61;;;25.74;44.53
72794;BME280;63436;26.334;50.194;2023-04-25T09:17:01;100871.32;;;26.96;42.85
72794;BME280;63436;26.334;50.194;2023-04-25T09:19:25;100878.15;;;26.94;42.71
72794;BME280;63436;26.334;50.194;2023-04-25T09:21:49;100888.24;;;26.55;43.04
72794;BME280;63436;26.334;50.194;2023-04-25T09:24:14;100882.63;;;26.79;42.39
72794;BME280;63436;26.334;50.194;2023-04-25T09:26:41;100885.16;;;27.63;41.03
72794;BME280;63436;26.334;50.194;2023-04-25T09:29:07;100890.76;;;27.73;41.08
72794;BME280;63436;26.334;50.194;2023-04-25T09:31:35;100888.91;;;28.02;40.20
72794;BME280;63436;26.334;50.194;2023-04-25T09:33:59;100884.74;;;26.87;42.01
72794;BME280;63436;26.334;50.194;2023-04-25T09:36:26;100881.54;;;27.49;40.97
72794;BME280;63436;26.334;50.194;2023-04-25T09:38:48;100873.70;;;25.68;43.95
72794;BME280;63436;26.334;50.194;2023-04-25T09:41:13;100870.66;;;26.71;42.91
72794;BME280;63436;26.334;50.194;2023-04-25T09:43:39;100865.76;;;26.70;42.40
72794;BME280;63436;26.334;50.194;2023-04-25T09:46:09;100861.83;;;26.74;42.74
72794;BME280;63436;26.334;50.194;2023-04-25T09:48:31;100852.06;;;26.79;42.82
72794;BME280;63436;26.334;50.194;2023-04-25T09:51:05;100851.08;;;26.88;42.55
72794;BME280;63436;26.334;50.194;2023-04-25T09:53:21;100852.36;;;27.22;42.01
72794;BME280;63436;26.334;50.194;2023-04-25T09:55:47;100843.48;;;27.15;42.33
72794;BME280;63436;26.334;50.194;2023-04-25T09:58:13;100835.15;;;27.24;42.18
72794;BME280;63436;26.334;50.194;2023-04-25T10:00:38;100831.97;;;27.00;42.00
72794;BME280;63436;26.334;50.194;2023-04-25T10:03:05;100829.38;;;27.18;42.07
72794;BME280;63436;26.334;50.194;2023-04-25T10:05:31;100826.40;;;28.45;40.18
72794;BME280;63436;26.334;50.194;2023-04-25T10:07:55;100827.49;;;27.40;41.79
72794;BME280;63436;26.334;50.194;2023-04-25T10:10:21;100818.24;;;27.43;41.64
72794;BME280;63436;26.334;50.194;2023-04-25T10:12:46;100812.55;;;28.89;40.32
72794;BME280;63436;26.334;50.194;2023-04-25T10:15:12;100795.70;;;28.40;40.60
72794;BME280;63436;26.334;50.194;2023-04-25T10:17:38;100803.62;;;27.71;41.38
72794;BME280;63436;26.334;50.194;2023-04-25T10:20:03;100808.21;;;28.06;40.59
72794;BME280;63436;26.334;50.194;2023-04-25T10:22:32;100804.38;;;29.07;38.93
72794;BME280;63436;26.334;50.194;2023-04-25T10:24:55;100802.10;;;28.55;40.04
72794;BME280;63436;26.334;50.194;2023-04-25T10:27:19;100805.38;;;27.58;41.59
72794;BME280;63436;26.334;50.194;2023-04-25T10:29:45;100799.71;;;27.04;43.26
72794;BME280;63436;26.334;50.194;2023-04-25T10:32:11;100789.57;;;28.41;40.99
72794;BME280;63436;26.334;50.194;2023-04-25T10:34:41;100782.28;;;28.24;40.86
72794;BME280;63436;26.334;50.194;2023-04-25T10:37:02;100787.94;;;27.02;42.50
72794;BME280;63436;26.334;50.194;2023-04-25T10:39:27;100777.16;;;29.67;39.26
72794;BME280;63436;26.334;50.194;2023-04-25T10:41:55;100774.05;;;28.80;40.12
72794;BME280;63436;26.334;50.194;2023-04-25T10:44:19;100773.84;;;29.36;38.99
72794;BME280;63436;26.334;50.194;2023-04-25T10:46:45;100775.80;;;29.80;38.24
72794;BME280;63436;26.334;50.194;2023-04-25T10:49:10;100775.80;;;28.13;40.51
72794;BME280;63436;26.334;50.194;2023-04-25T10:51:36;100778.93;;;28.41;40.43
72794;BME280;63436;26.334;50.194;2023-04-25T10:54:03;100786.42;;;29.94;38.04
72794;BME280;63436;26.334;50.194;2023-04-25T10:56:28;100792.89;;;29.98;38.02
72794;BME280;63436;26.334;50.194;2023-04-25T10:58:52;100791.15;;;29.27;38.79
72794;BME280;63436;26.334;50.194;2023-04-25T11:01:21;100790.37;;;28.39;40.15
72794;BME280;63436;26.334;50.194;2023-04-25T11:03:43;100791.11;;;28.90;39.05
72794;BME280;63436;26.334;50.194;2023-04-25T11:06:18;100798.98;;;27.69;41.06
72794;BME280;63436;26.334;50.194;2023-04-25T11:08:42;100801.21;;;28.51;40.22
72794;BME280;63436;26.334;50.194;2023-04-25T11:11:00;100789.22;;;28.80;39.89
72794;BME280;63436;26.334;50.194;2023-04-25T11:13:29;100792.03;;;28.45;40.87
72794;BME280;63436;26.334;50.194;2023-04-25T11:15:51;100796.42;;;27.75;41.59
72794;BME280;63436;26.334;50.194;2023-04-25T11:18:16;100792.36;;;28.49;40.36
72794;BME280;63436;26.334;50.194;2023-04-25T11:20:43;100799.80;;;28.33;40.54
72794;BME280;63436;26.334;50.194;2023-04-25T11:23:08;100805.69;;;28.96;39.56
72794;BME280;63436;26.334;50.194;2023-04-25T11:25:33;100805.67;;;29.00;39.44
72794;BME280;63436;26.334;50.194;2023-04-25T11:28:00;100807.46;;;28.78;39.34
72794;BME280;63436;26.334;50.194;2023-04-25T11:30:26;100805.82;;;29.71;38.14
72794;BME280;63436;26.334;50.194;2023-04-25T11:33:04;100807.12;;;28.22;39.53
72794;BME280;63436;26.334;50.194;2023-04-25T11:35:15;100810.24;;;27.64;40.91
72794;BME280;63436;26.334;50.194;2023-04-25T11:37:42;100795.24;;;29.05;38.97
72794;BME280;63436;26.334;50.194;2023-04-25T11:40:08;100782.67;;;29.34;38.47
72794;BME280;63436;26.334;50.194;2023-04-25T11:42:32;100777.78;;;29.36;38.24
72794;BME280;63436;26.334;50.194;2023-04-25T11:44:58;100781.88;;;27.84;41.26
72794;BME280;63436;26.334;50.194;2023-04-25T11:47:29;100776.40;;;28.03;40.94
72794;BME280;63436;26.334;50.194;2023-04-25T11:49:50;100775.62;;;27.86;41.05
72794;BME280;63436;26.334;50.194;2023-04-25T11:52:15;100775.90;;;30.00;37.96
72794;BME280;63436;26.334;50.194;2023-04-25T11:54:40;100776.00;;;28.31;40.88
72794;BME280;63436;26.334;50.194;2023-04-25T11:57:06;100774.35;;;29.17;39.13
72794;BME280;63436;26.334;50.194;2023-04-25T11:59:32;100770.75;;;28.93;38.93
72794;BME280;63436;26.334;50.194;2023-04-25T12:01:57;100764.40;;;29.58;37.61
72794;BME280;63436;26.334;50.194;2023-04-25T12:04:24;100764.54;;;28.18;39.55
72794;BME280;63436;26.334;50.194;2023-04-25T12:06:49;100767.96;;;28.88;38.78
72794;BME280;63436;26.334;50.194;2023-04-25T12:09:15;100763.82;;;30.03;36.93
72794;BME280;63436;26.334;50.194;2023-04-25T12:11:43;100773.67;;;28.82;39.17
72794;BME280;63436;26.334;50.194;2023-04-25T12:14:05;100773.70;;;28.96;39.15
72794;BME280;63436;26.334;50.194;2023-04-25T12:16:41;100774.52;;;29.77;38.35
72794;BME280;63436;26.334;50.194;2023-04-25T12:18:56;100766.99;;;28.62;39.46
72794;BME280;63436;26.334;50.194;2023-04-25T12:21:22;100763.21;;;29.20;38.95
72794;BME280;63436;26.334;50.194;2023-04-25T12:23:47;100762.92;;;28.87;38.84
72794;BME280;63436;26.334;50.194;2023-04-25T12:26:13;100767.02;;;29.27;37.74
72794;BME280;63436;26.334;50.194;2023-04-25T12:28:39;100754.33;;;30.13;36.23
72794;BME280;63436;26.334;50.194;2023-04-25T12:31:05;100757.48;;;29.21;36.70